createdAt,value
2023-05-03T00:00:13.866Z,9.44
2023-05-03T00:03:05.017Z,9.37
2023-05-03T00:05:34.552Z,9.30
2023-05-03T00:08:04.845Z,9.23
2023-05-03T00:10:34.148Z,9.17
2023-05-03T00:13:03.559Z,9.10
2023-05-03T00:15:32.852Z,9.02
2023-05-03T00:18:02.092Z,8.94
2023-05-03T00:20:31.555Z,8.88
2023-05-03T00:23:02.298Z,8.81
2023-05-03T00:25:31.487Z,8.73
2023-05-03T00:28:01.029Z,8.66
2023-05-03T00:30:30.485Z,8.60
2023-05-03T00:32:59.931Z,8.55
2023-05-03T00:35:29.451Z,8.52
2023-05-03T00:37:59.630Z,8.49
2023-05-03T00:40:29.447Z,8.48
2023-05-03T00:42:58.645Z,8.45
2023-05-03T00:45:29.682Z,8.45
2023-05-03T00:47:59.386Z,8.43
2023-05-03T00:50:30.066Z,8.40
2023-05-03T00:52:59.431Z,8.38
2023-05-03T00:55:31.810Z,8.37
2023-05-03T00:58:01.213Z,8.34
2023-05-03T01:00:30.811Z,8.30
2023-05-03T01:03:00.227Z,8.26
2023-05-03T01:05:44.480Z,8.22
2023-05-03T01:08:28.203Z,8.17
2023-05-03T01:11:27.713Z,8.12
2023-05-03T01:14:28.249Z,8.10
2023-05-03T01:17:05.736Z,8.06
2023-05-03T01:19:51.853Z,8.02
2023-05-03T01:22:50.831Z,7.97
2023-05-03T01:25:20.335Z,7.96
2023-05-03T01:27:50.863Z,7.94
2023-05-03T01:30:23.840Z,7.94
2023-05-03T01:33:32.684Z,7.91
2023-05-03T01:36:27.169Z,7.89
2023-05-03T01:38:56.503Z,7.86
2023-05-03T01:41:28.153Z,7.86
2023-05-03T01:43:57.688Z,7.85
2023-05-03T01:46:27.193Z,7.81
2023-05-03T01:48:56.645Z,7.79
2023-05-03T01:51:26.156Z,7.76
2023-05-03T01:53:55.231Z,7.71
2023-05-03T01:56:24.548Z,7.66
2023-05-03T01:58:53.849Z,7.62
2023-05-03T02:01:23.207Z,7.58
2023-05-03T02:03:52.577Z,7.53
2023-05-03T02:06:21.773Z,7.47
2023-05-03T02:08:53.010Z,7.43
2023-05-03T02:11:22.424Z,7.41
2023-05-03T02:13:51.714Z,7.39
2023-05-03T02:16:21.758Z,7.40
2023-05-03T02:18:52.151Z,7.40
2023-05-03T02:21:21.460Z,7.39
2023-05-03T02:23:50.746Z,7.40
2023-05-03T02:26:21.172Z,7.40
2023-05-03T02:28:50.589Z,7.38
2023-05-03T02:31:20.052Z,7.37
2023-05-03T02:33:49.489Z,7.37
2023-05-03T02:36:18.991Z,7.35
2023-05-03T02:38:48.904Z,7.32
2023-05-03T02:41:18.319Z,7.30
2023-05-03T02:43:48.838Z,7.26
2023-05-03T02:46:18.381Z,7.21
2023-05-03T02:48:47.647Z,7.18
2023-05-03T02:51:16.946Z,7.14
2023-05-03T02:53:46.346Z,7.11
2023-05-03T02:56:15.759Z,7.09
2023-05-03T02:58:44.931Z,7.08
2023-05-03T03:01:14.452Z,7.07
2023-05-03T03:03:44.364Z,7.07
2023-05-03T03:06:13.996Z,7.08
2023-05-03T03:08:43.280Z,7.09
2023-05-03T03:11:13.308Z,7.11
2023-05-03T03:13:42.807Z,7.16
2023-05-03T03:16:13.703Z,7.17
2023-05-03T03:18:43.046Z,7.18
2023-05-03T03:21:12.857Z,7.20
2023-05-03T03:23:42.470Z,7.23
2023-05-03T03:26:12.920Z,7.23
2023-05-03T03:28:42.302Z,7.26
2023-05-03T03:31:12.142Z,7.28
2023-05-03T03:33:42.744Z,7.31
2023-05-03T03:36:14.289Z,7.37
2023-05-03T03:38:43.807Z,7.42
2023-05-03T03:41:13.817Z,7.49
2023-05-03T03:43:43.575Z,7.53
2023-05-03T03:46:15.420Z,7.59
2023-05-03T03:48:45.512Z,7.67
2023-05-03T03:51:15.212Z,7.74
2023-05-03T03:53:46.817Z,7.83
2023-05-03T03:56:16.703Z,7.95
2023-05-03T03:58:49.040Z,8.11
2023-05-03T04:01:18.874Z,8.26
2023-05-03T04:03:48.537Z,8.35
2023-05-03T04:06:18.218Z,8.43
2023-05-03T04:08:48.723Z,8.49
2023-05-03T04:11:19.146Z,8.50
2023-05-03T04:13:52.869Z,8.54
2023-05-03T04:16:22.680Z,8.57
2023-05-03T04:18:52.613Z,8.61
2023-05-03T04:21:22.132Z,8.66
2023-05-03T04:23:52.358Z,8.70
2023-05-03T04:26:31.878Z,8.79
2023-05-03T04:29:13.130Z,8.95
2023-05-03T04:31:43.778Z,9.14
2023-05-03T04:34:16.119Z,9.36
2023-05-03T04:36:47.583Z,9.51
2023-05-03T04:39:17.094Z,9.57
2023-05-03T04:41:47.695Z,9.68
2023-05-03T04:44:17.753Z,9.89
2023-05-03T04:46:48.780Z,9.99
2023-05-03T04:49:19.822Z,10.06
2023-05-03T04:51:49.017Z,10.16
2023-05-03T04:54:18.730Z,10.33
2023-05-03T04:56:48.339Z,10.59
2023-05-03T04:59:20.101Z,10.95
2023-05-03T05:01:50.087Z,11.43
2023-05-03T05:04:19.726Z,12.02
2023-05-03T05:06:54.533Z,12.47
2023-05-03T05:09:29.308Z,12.78
2023-05-03T05:12:00.624Z,12.99
2023-05-03T05:14:35.276Z,13.23
2023-05-03T05:17:05.453Z,13.46
2023-05-03T05:19:34.782Z,13.72
2023-05-03T05:22:05.814Z,13.97
2023-05-03T05:24:42.184Z,14.17
2023-05-03T05:27:13.016Z,14.40
2023-05-03T05:29:43.566Z,14.70
2023-05-03T05:32:13.163Z,14.99
2023-05-03T05:34:45.890Z,15.35
2023-05-03T05:37:18.211Z,15.72
2023-05-03T05:39:47.921Z,16.01
2023-05-03T05:42:18.551Z,16.19
2023-05-03T05:44:48.164Z,16.27
2023-05-03T05:47:19.451Z,16.36
2023-05-03T05:49:49.032Z,16.54
2023-05-03T05:52:18.457Z,16.79
2023-05-03T05:54:48.131Z,17.11
2023-05-03T05:57:18.659Z,17.23
2023-05-03T05:59:47.836Z,17.44
2023-05-03T06:02:18.044Z,17.53
2023-05-03T06:04:49.895Z,17.57
2023-05-03T06:07:19.445Z,17.58
2023-05-03T06:09:48.849Z,17.49
2023-05-03T06:12:18.258Z,17.36
2023-05-03T06:15:01.332Z,17.40
2023-05-03T06:17:36.336Z,17.54
2023-05-03T06:20:07.327Z,17.88
2023-05-03T06:22:36.784Z,18.45
2023-05-03T06:25:08.993Z,18.94
2023-05-03T06:27:38.840Z,19.40
2023-05-03T06:30:10.645Z,19.74
2023-05-03T06:32:42.553Z,20.05
2023-05-03T06:35:14.017Z,20.29
2023-05-03T06:37:43.872Z,20.48
2023-05-03T06:40:13.841Z,20.48
2023-05-03T06:42:43.403Z,20.56
2023-05-03T06:45:17.243Z,20.59
2023-05-03T06:47:46.577Z,20.79
2023-05-03T06:50:16.267Z,21.03
2023-05-03T06:52:45.881Z,21.17
2023-05-03T06:55:15.277Z,21.10
2023-05-03T06:57:48.061Z,20.94
2023-05-03T07:00:18.177Z,20.62
2023-05-03T07:02:48.088Z,20.28
2023-05-03T07:05:17.913Z,19.97
2023-05-03T07:07:47.103Z,19.70
2023-05-03T07:10:16.520Z,19.46
2023-05-03T07:12:46.021Z,19.23
2023-05-03T07:15:15.754Z,19.08
2023-05-03T07:17:44.941Z,18.91
2023-05-03T07:20:14.737Z,18.76
2023-05-03T07:22:44.852Z,18.65
2023-05-03T07:25:16.574Z,18.48
2023-05-03T07:27:46.937Z,18.29
2023-05-03T07:30:16.341Z,18.19
2023-05-03T07:32:45.830Z,18.16
2023-05-03T07:35:15.786Z,18.18
2023-05-03T07:37:45.370Z,18.23
2023-05-03T07:40:15.181Z,18.39
2023-05-03T07:42:44.483Z,18.53
2023-05-03T07:45:13.884Z,18.69
2023-05-03T07:47:43.318Z,18.78
2023-05-03T07:50:14.214Z,18.87
2023-05-03T07:52:43.762Z,18.93
2023-05-03T07:55:13.032Z,19.18
2023-05-03T07:57:42.849Z,19.38
2023-05-03T08:00:15.146Z,19.46
2023-05-03T08:02:45.365Z,19.50
2023-05-03T08:05:15.143Z,19.45
2023-05-03T08:07:46.092Z,19.39
2023-05-03T08:10:16.003Z,19.24
2023-05-03T08:12:46.028Z,19.09
2023-05-03T08:15:15.544Z,19.04
2023-05-03T08:17:46.716Z,19.00
2023-05-03T08:20:16.934Z,18.96
2023-05-03T08:22:46.745Z,18.81
2023-05-03T08:25:17.959Z,18.60
2023-05-03T08:27:47.572Z,18.46
2023-05-03T08:30:16.964Z,18.52
2023-05-03T08:32:46.513Z,18.71
2023-05-03T08:35:16.083Z,18.89
2023-05-03T08:37:45.691Z,19.12
2023-05-03T08:40:16.933Z,19.18
2023-05-03T08:42:46.786Z,19.19
2023-05-03T08:45:17.402Z,19.19
2023-05-03T08:47:46.610Z,19.15
2023-05-03T08:50:16.414Z,19.08
2023-05-03T08:52:46.712Z,19.05
2023-05-03T08:55:17.147Z,18.95
2023-05-03T08:57:46.661Z,18.96
2023-05-03T09:00:18.733Z,19.06
2023-05-03T09:02:50.351Z,19.28
2023-05-03T09:05:19.664Z,19.36
2023-05-03T09:08:11.545Z,19.45
2023-05-03T09:10:43.270Z,19.78
2023-05-03T09:13:12.785Z,19.79
2023-05-03T09:15:44.325Z,19.78
2023-05-03T09:18:19.997Z,19.84
2023-05-03T09:20:53.258Z,20.04
2023-05-03T09:23:31.883Z,20.27
2023-05-03T09:26:01.487Z,20.27
2023-05-03T09:28:42.070Z,20.15
2023-05-03T09:31:12.831Z,20.07
2023-05-03T09:33:43.426Z,19.98
2023-05-03T09:36:13.093Z,19.92
2023-05-03T09:38:43.006Z,19.86
2023-05-03T09:41:12.992Z,19.75
2023-05-03T09:44:03.169Z,19.61
2023-05-03T09:46:33.473Z,19.34
2023-05-03T09:49:04.181Z,19.24
2023-05-03T09:51:34.430Z,19.23
2023-05-03T09:54:04.849Z,19.21
2023-05-03T09:56:34.281Z,19.13
2023-05-03T09:59:04.187Z,19.07
2023-05-03T10:01:36.191Z,19.04
2023-05-03T10:04:07.324Z,18.97
2023-05-03T10:06:44.217Z,18.92
2023-05-03T10:09:24.520Z,18.86
2023-05-03T10:11:55.201Z,18.92
2023-05-03T10:14:25.272Z,18.95
2023-05-03T10:17:03.065Z,18.97
2023-05-03T10:19:43.843Z,19.01
2023-05-03T10:22:13.245Z,19.10
2023-05-03T10:25:01.821Z,19.21
2023-05-03T10:27:52.795Z,19.31
2023-05-03T10:30:35.004Z,19.38
2023-05-03T10:33:14.392Z,19.31
2023-05-03T10:35:55.112Z,19.25
2023-05-03T10:38:26.974Z,19.16
2023-05-03T10:40:57.234Z,19.17
2023-05-03T10:43:32.872Z,19.32
2023-05-03T10:46:07.284Z,19.49
2023-05-03T10:48:36.691Z,19.58
2023-05-03T10:51:29.220Z,19.79
2023-05-03T10:53:58.624Z,20.11
2023-05-03T10:56:28.324Z,20.44
2023-05-03T10:58:59.214Z,20.90
2023-05-03T11:01:30.216Z,21.48
2023-05-03T11:04:12.834Z,21.87
2023-05-03T11:06:42.493Z,21.96
2023-05-03T11:09:14.983Z,21.93
2023-05-03T11:11:44.508Z,22.03
2023-05-03T11:14:14.113Z,22.28
2023-05-03T11:16:50.924Z,22.43
2023-05-03T11:19:21.123Z,22.52
2023-05-03T11:21:51.336Z,22.48
2023-05-03T11:24:20.835Z,22.47
2023-05-03T11:26:50.652Z,22.45
2023-05-03T11:29:21.692Z,22.45
2023-05-03T11:31:52.708Z,22.46
2023-05-03T11:34:22.133Z,22.31
2023-05-03T11:36:51.437Z,22.07
2023-05-03T11:39:21.069Z,21.91
2023-05-03T11:42:08.470Z,21.65
2023-05-03T11:44:38.097Z,21.45
2023-05-03T11:47:07.978Z,21.34
2023-05-03T11:49:37.941Z,21.29
2023-05-03T11:52:08.067Z,21.18
2023-05-03T11:54:37.747Z,21.09
2023-05-03T11:57:14.855Z,20.99
2023-05-03T11:59:45.050Z,20.85
2023-05-03T12:02:16.170Z,20.76
2023-05-03T12:04:46.576Z,20.73
2023-05-03T12:07:19.300Z,20.76
2023-05-03T12:10:05.754Z,20.74
2023-05-03T12:12:43.265Z,20.77
2023-05-03T12:15:30.024Z,20.79
2023-05-03T12:18:04.212Z,20.73
2023-05-03T12:21:28.506Z,20.70
2023-05-03T12:23:27.334Z,20.75
2023-05-03T12:26:00.884Z,20.84
2023-05-03T12:28:30.413Z,20.87
2023-05-03T12:31:00.346Z,20.83
2023-05-03T12:33:31.702Z,20.80
2023-05-03T12:36:04.404Z,20.71
2023-05-03T12:38:37.556Z,20.71
2023-05-03T12:41:09.113Z,20.82
2023-05-03T12:43:38.925Z,21.10
2023-05-03T12:46:32.461Z,21.36
2023-05-03T12:49:00.333Z,21.53
2023-05-03T12:51:33.323Z,21.57
2023-05-03T12:54:10.133Z,21.54
2023-05-03T12:56:41.370Z,21.51
2023-05-03T12:59:31.796Z,21.47
2023-05-03T13:04:57.105Z,21.46
2023-05-03T13:07:30.184Z,21.38
2023-05-03T13:12:34.315Z,21.18
2023-05-03T13:15:04.834Z,21.00
2023-05-03T13:17:34.718Z,20.95
2023-05-03T13:20:07.241Z,21.01
2023-05-03T13:22:36.637Z,21.08
2023-05-03T13:25:07.366Z,21.33
2023-05-03T13:27:36.761Z,21.60
2023-05-03T13:30:08.792Z,21.81
2023-05-03T13:32:38.371Z,21.93
2023-05-03T13:35:09.790Z,21.94
2023-05-03T13:37:39.152Z,21.81
2023-05-03T13:40:10.222Z,21.63
2023-05-03T13:42:39.457Z,21.56
2023-05-03T13:45:10.318Z,21.48
2023-05-03T13:48:05.286Z,21.39
2023-05-03T13:50:31.804Z,21.31
2023-05-03T13:53:01.671Z,21.23
2023-05-03T13:55:31.032Z,21.16
2023-05-03T13:58:00.941Z,21.14
2023-05-03T14:00:32.319Z,21.15
2023-05-03T14:03:02.560Z,21.26
2023-05-03T14:05:33.020Z,21.54
2023-05-03T14:08:02.640Z,21.74
2023-05-03T14:10:35.754Z,21.74
2023-05-03T14:13:05.380Z,21.54
2023-05-03T14:15:43.885Z,21.38
2023-05-03T14:18:13.499Z,21.18
2023-05-03T14:20:43.403Z,20.98
2023-05-03T14:23:13.299Z,20.86
2023-05-03T14:25:43.662Z,20.74
2023-05-03T14:28:13.227Z,20.61
2023-05-03T14:30:42.690Z,20.51
2023-05-03T14:33:12.386Z,20.46
2023-05-03T14:35:42.083Z,20.32
2023-05-03T14:38:11.469Z,20.17
2023-05-03T14:40:44.857Z,20.01
2023-05-03T14:43:15.994Z,19.88
2023-05-03T14:45:45.533Z,19.80
2023-05-03T14:48:16.033Z,19.75
2023-05-03T14:50:50.426Z,19.70
2023-05-03T14:53:22.731Z,19.67
2023-05-03T14:55:55.050Z,19.71
2023-05-03T14:58:24.531Z,19.78
2023-05-03T15:00:53.884Z,19.82
2023-05-03T15:03:23.430Z,19.82
2023-05-03T15:05:53.631Z,19.81
2023-05-03T15:08:23.241Z,19.80
2023-05-03T15:10:52.743Z,19.77
2023-05-03T15:13:22.376Z,19.78
2023-05-03T15:15:52.318Z,19.80
2023-05-03T15:18:22.298Z,19.85
2023-05-03T15:20:51.803Z,19.84
2023-05-03T15:23:21.541Z,19.78
2023-05-03T15:25:51.838Z,19.71
2023-05-03T15:28:21.643Z,19.67
2023-05-03T15:30:51.399Z,19.62
2023-05-03T15:33:21.442Z,19.57
2023-05-03T15:35:50.751Z,19.53
2023-05-03T15:38:20.276Z,19.49
2023-05-03T15:40:49.782Z,19.49
2023-05-03T15:43:19.590Z,19.46
2023-05-03T15:45:49.249Z,19.42
2023-05-03T15:48:19.055Z,19.38
2023-05-03T15:50:48.621Z,19.35
2023-05-03T15:53:19.045Z,19.30
2023-05-03T15:55:49.064Z,19.25
2023-05-03T15:58:19.309Z,19.20
2023-05-03T16:00:48.489Z,19.16
2023-05-03T16:03:18.509Z,19.09
2023-05-03T16:05:48.729Z,19.03
2023-05-03T16:08:20.147Z,18.97
2023-05-03T16:10:49.585Z,18.89
2023-05-03T16:13:19.194Z,18.83
2023-05-03T16:15:52.701Z,18.76
2023-05-03T16:18:24.488Z,18.67
2023-05-03T16:20:54.299Z,18.55
2023-05-03T16:23:23.565Z,18.45
2023-05-03T16:25:52.871Z,18.35
2023-05-03T16:28:22.175Z,18.27
2023-05-03T16:30:51.977Z,18.19
2023-05-03T16:33:22.511Z,18.11
2023-05-03T16:35:52.731Z,18.05
2023-05-03T16:38:22.152Z,17.99
2023-05-03T16:40:51.844Z,17.94
2023-05-03T16:43:21.255Z,17.88
2023-05-03T16:46:01.241Z,17.81
2023-05-03T16:48:31.866Z,17.72
2023-05-03T16:51:01.345Z,17.64
2023-05-03T16:53:31.485Z,17.55
2023-05-03T16:56:01.882Z,17.45
2023-05-03T16:58:31.180Z,17.36
2023-05-03T17:01:00.549Z,17.25
2023-05-03T17:03:30.010Z,17.15
2023-05-03T17:06:01.401Z,17.06
2023-05-03T17:08:33.092Z,16.97
2023-05-03T17:11:09.202Z,16.91
2023-05-03T17:13:38.662Z,16.86
2023-05-03T17:16:15.316Z,16.80
2023-05-03T17:18:44.651Z,16.73
2023-05-03T17:21:14.909Z,16.68
2023-05-03T17:23:46.082Z,16.63
2023-05-03T17:26:15.704Z,16.57
2023-05-03T17:28:45.209Z,16.50
2023-05-03T17:31:14.523Z,16.45
2023-05-03T17:33:43.917Z,16.37
2023-05-03T17:36:13.111Z,16.28
2023-05-03T17:38:43.863Z,16.21
2023-05-03T17:41:14.073Z,16.16
2023-05-03T17:43:43.881Z,16.09
2023-05-03T17:46:14.614Z,16.05
2023-05-03T17:48:44.509Z,16.01
2023-05-03T17:51:13.976Z,15.94
2023-05-03T17:53:43.749Z,15.90
2023-05-03T17:56:15.236Z,15.83
2023-05-03T17:58:45.340Z,15.78
2023-05-03T18:01:15.977Z,15.71
2023-05-03T18:03:45.737Z,15.66
2023-05-03T18:06:16.129Z,15.59
2023-05-03T18:08:45.504Z,15.54
2023-05-03T18:11:15.015Z,15.48
2023-05-03T18:13:45.122Z,15.42
2023-05-03T18:16:14.684Z,15.38
2023-05-03T18:18:44.332Z,15.33
2023-05-03T18:21:13.534Z,15.28
2023-05-03T18:23:44.328Z,15.21
2023-05-03T18:26:15.205Z,15.13
2023-05-03T18:28:46.974Z,15.09
2023-05-03T18:31:16.365Z,15.06
2023-05-03T18:33:45.979Z,15.03
2023-05-03T18:36:15.786Z,14.99
2023-05-03T18:38:47.247Z,14.93
2023-05-03T18:41:17.777Z,14.89
2023-05-03T18:43:47.313Z,14.85
2023-05-03T18:46:21.717Z,14.81
2023-05-03T18:48:53.557Z,14.76
2023-05-03T18:51:23.372Z,14.71
2023-05-03T18:53:52.776Z,14.65
2023-05-03T18:56:22.583Z,14.57
2023-05-03T18:58:52.497Z,14.49
2023-05-03T19:01:24.751Z,14.34
2023-05-03T19:03:55.174Z,14.18
2023-05-03T19:06:24.605Z,14.00
2023-05-03T19:08:54.746Z,13.77
2023-05-03T19:11:25.199Z,13.54
2023-05-03T19:13:54.671Z,13.33
2023-05-03T19:16:24.200Z,13.18
2023-05-03T19:18:56.054Z,13.07
2023-05-03T19:21:25.329Z,12.99
2023-05-03T19:23:54.456Z,12.91
2023-05-03T19:26:24.131Z,12.86
2023-05-03T19:28:53.326Z,12.80
2023-05-03T19:31:22.625Z,12.77
2023-05-03T19:33:52.955Z,12.74
2023-05-03T19:36:22.757Z,12.73
2023-05-03T19:38:52.273Z,12.74
2023-05-03T19:41:21.640Z,12.75
2023-05-03T19:43:55.119Z,12.77
2023-05-03T19:46:24.466Z,12.80
2023-05-03T19:48:53.778Z,12.81
2023-05-03T19:51:23.484Z,12.81
2023-05-03T19:53:53.912Z,12.80
2023-05-03T19:56:25.280Z,12.77
2023-05-03T19:58:55.593Z,12.76
2023-05-03T20:01:24.819Z,12.74
2023-05-03T20:03:55.294Z,12.71
2023-05-03T20:06:24.719Z,12.69
2023-05-03T20:08:53.912Z,12.66
2023-05-03T20:11:23.333Z,12.63
2023-05-03T20:13:52.606Z,12.61
2023-05-03T20:16:22.371Z,12.59
2023-05-03T20:18:53.575Z,12.57
2023-05-03T20:21:22.983Z,12.55
2023-05-03T20:23:52.488Z,12.51
2023-05-03T20:26:22.100Z,12.48
2023-05-03T20:28:51.721Z,12.44
2023-05-03T20:31:21.666Z,12.40
2023-05-03T20:33:51.038Z,12.35
2023-05-03T20:36:20.321Z,12.32
2023-05-03T20:38:49.622Z,12.32
2023-05-03T20:41:19.739Z,12.32
2023-05-03T20:43:49.283Z,12.33
2023-05-03T20:46:18.848Z,12.31
2023-05-03T20:48:48.504Z,12.27
2023-05-03T20:51:17.773Z,12.26
2023-05-03T20:53:47.482Z,12.23
2023-05-03T20:56:17.720Z,12.22
2023-05-03T20:58:47.199Z,12.22
2023-05-03T21:01:17.792Z,12.19
2023-05-03T21:03:47.299Z,12.18
2023-05-03T21:06:16.799Z,12.17
2023-05-03T21:08:47.092Z,12.13
2023-05-03T21:11:16.369Z,12.08
2023-05-03T21:13:48.438Z,12.00
2023-05-03T21:16:17.968Z,11.91
2023-05-03T21:18:47.243Z,11.80
2023-05-03T21:21:16.534Z,11.71
2023-05-03T21:23:48.198Z,11.63
2023-05-03T21:26:17.702Z,11.56
2023-05-03T21:28:46.904Z,11.52
2023-05-03T21:31:16.766Z,11.46
2023-05-03T21:33:46.109Z,11.38
2023-05-03T21:36:16.636Z,11.33
2023-05-03T21:38:46.149Z,11.29
2023-05-03T21:41:15.754Z,11.26
2023-05-03T21:43:45.162Z,11.21
2023-05-03T21:46:14.615Z,11.17
2023-05-03T21:48:44.169Z,11.17
2023-05-03T21:51:25.143Z,11.17
2023-05-03T21:53:54.650Z,11.16
2023-05-03T21:56:23.847Z,11.17
2023-05-03T21:58:53.250Z,11.17
2023-05-03T22:01:22.693Z,11.18
2023-05-03T22:03:52.780Z,11.20
2023-05-03T22:06:22.687Z,11.22
2023-05-03T22:08:51.985Z,11.21
2023-05-03T22:11:22.005Z,11.22
2023-05-03T22:14:06.843Z,11.22
2023-05-03T22:16:39.072Z,11.20
2023-05-03T22:19:08.996Z,11.19
2023-05-03T22:21:38.567Z,11.17
2023-05-03T22:24:08.793Z,11.14
2023-05-03T22:26:38.094Z,11.12
2023-05-03T22:29:07.814Z,11.11
2023-05-03T22:31:37.108Z,11.12
2023-05-03T22:34:06.313Z,11.15
2023-05-03T22:36:35.597Z,11.14
2023-05-03T22:39:05.922Z,11.13
2023-05-03T22:41:35.338Z,11.13
2023-05-03T22:44:04.579Z,11.12
2023-05-03T22:46:34.343Z,11.14
2023-05-03T22:49:04.074Z,11.15
2023-05-03T22:51:33.653Z,11.13
2023-05-03T22:54:02.849Z,11.11
2023-05-03T22:56:32.154Z,11.07
2023-05-03T22:59:01.667Z,11.01
2023-05-03T23:01:31.045Z,10.95
2023-05-03T23:04:00.613Z,10.88
2023-05-03T23:06:30.480Z,10.82
2023-05-03T23:09:01.236Z,10.77
2023-05-03T23:11:30.620Z,10.73
2023-05-03T23:14:00.029Z,10.69
2023-05-03T23:16:29.495Z,10.65
2023-05-03T23:18:58.831Z,10.65
2023-05-03T23:21:28.339Z,10.65
2023-05-03T23:23:57.843Z,10.65
2023-05-03T23:26:28.299Z,10.67
2023-05-03T23:28:57.992Z,10.68
2023-05-03T23:31:29.786Z,10.68
2023-05-03T23:34:00.642Z,10.67
2023-05-03T23:36:29.985Z,10.64
2023-05-03T23:38:59.389Z,10.60
2023-05-03T23:41:28.780Z,10.60
2023-05-03T23:43:58.201Z,10.59
2023-05-03T23:46:27.423Z,10.53
2023-05-03T23:48:56.999Z,10.48
2023-05-03T23:51:26.360Z,10.46
2023-05-03T23:53:55.604Z,10.42
2023-05-03T23:56:25.204Z,10.39
2023-05-03T23:58:54.708Z,10.34
